createdAt,value
2017-08-01T00:01:57.599Z,3.17
2017-08-01T00:04:27.843Z,3.43
2017-08-01T00:06:57.701Z,3.00
2017-08-01T00:09:27.601Z,2.80
2017-08-01T00:11:57.830Z,2.80
2017-08-01T00:14:27.700Z,3.07
2017-08-01T00:16:58.141Z,3.20
2017-08-01T00:19:27.986Z,2.40
2017-08-01T00:21:58.246Z,3.30
2017-08-01T00:24:28.109Z,3.13
2017-08-01T00:26:58.315Z,3.40
2017-08-01T00:29:28.177Z,3.13
2017-08-01T00:31:58.489Z,3.30
2017-08-01T00:34:28.365Z,3.30
2017-08-01T00:36:58.666Z,3.43
2017-08-01T00:39:28.542Z,3.20
2017-08-01T00:41:58.804Z,3.23
2017-08-01T00:44:28.688Z,3.40
2017-08-01T00:46:58.559Z,2.57
2017-08-01T00:49:28.836Z,2.60
2017-08-01T00:51:58.670Z,3.20
2017-08-01T00:54:28.555Z,2.80
2017-08-01T00:56:58.797Z,3.00
2017-08-01T00:59:28.647Z,2.83
2017-08-01T01:01:58.552Z,2.90
2017-08-01T01:04:28.747Z,3.23
2017-08-01T01:06:58.611Z,4.10
2017-08-01T01:09:28.454Z,3.20
2017-08-01T01:11:58.653Z,2.50
2017-08-01T01:14:28.529Z,2.70
2017-08-01T01:16:58.741Z,2.83
2017-08-01T01:19:28.594Z,2.40
2017-08-01T01:21:58.486Z,2.83
2017-08-01T01:24:28.807Z,2.50
2017-08-01T01:26:58.700Z,2.97
2017-08-01T01:29:28.609Z,2.67
2017-08-01T01:31:58.834Z,2.63
2017-08-01T01:34:28.706Z,2.67
2017-08-01T01:36:58.601Z,4.20
2017-08-01T01:39:28.854Z,2.90
2017-08-01T01:41:58.720Z,4.17
2017-08-01T01:44:29.090Z,3.10
2017-08-01T01:46:59.006Z,2.87
2017-08-01T01:49:29.254Z,3.80
2017-08-01T01:51:59.132Z,2.63
2017-08-01T01:54:29.388Z,2.20
2017-08-01T01:56:59.304Z,3.00
2017-08-01T01:59:29.610Z,3.03
2017-08-01T02:01:59.522Z,2.97
2017-08-01T02:04:29.840Z,3.37
2017-08-01T02:06:59.726Z,3.03
2017-08-01T02:09:29.606Z,2.67
2017-08-01T02:11:59.917Z,2.37
2017-08-01T02:14:29.767Z,2.67
2017-08-01T02:16:59.679Z,2.40
2017-08-01T02:19:30.136Z,2.60
2017-08-01T02:22:00.049Z,2.10
2017-08-01T02:24:30.269Z,2.37
2017-08-01T02:27:00.128Z,2.30
2017-08-01T02:29:30.431Z,2.30
2017-08-01T02:32:00.290Z,2.10
2017-08-01T02:34:30.546Z,1.80
2017-08-01T02:37:00.430Z,2.20
2017-08-01T02:39:30.689Z,2.53
2017-08-01T02:42:01.897Z,2.33
2017-08-01T02:44:32.141Z,2.20
2017-08-01T02:47:01.996Z,2.13
2017-08-01T02:49:32.290Z,2.67
2017-08-01T02:52:02.166Z,2.40
2017-08-01T02:54:32.421Z,2.23
2017-08-01T02:57:02.326Z,2.17
2017-08-01T02:59:32.545Z,2.20
2017-08-01T03:02:02.461Z,2.57
2017-08-01T03:04:32.686Z,2.50
2017-08-01T03:07:02.546Z,2.80
2017-08-01T03:09:32.877Z,2.30
2017-08-01T03:12:02.734Z,2.67
2017-08-01T03:14:32.602Z,2.10
2017-08-01T03:17:02.869Z,2.90
2017-08-01T03:19:32.744Z,2.30
2017-08-01T03:22:02.655Z,2.13
2017-08-01T03:24:32.917Z,2.80
2017-08-01T03:27:02.896Z,2.63
2017-08-01T03:29:33.259Z,2.63
2017-08-01T03:32:03.190Z,2.37
2017-08-01T03:34:33.510Z,2.60
2017-08-01T03:37:03.396Z,2.30
2017-08-01T03:39:33.729Z,2.90
2017-08-01T03:42:03.607Z,2.70
2017-08-01T03:44:33.869Z,3.00
2017-08-01T03:47:03.733Z,3.17
2017-08-01T03:49:33.612Z,3.07
2017-08-01T03:52:03.851Z,3.00
2017-08-01T03:54:33.733Z,3.27
2017-08-01T03:57:03.598Z,3.00
2017-08-01T03:59:33.819Z,2.63
2017-08-01T04:02:03.698Z,3.20
2017-08-01T04:04:33.595Z,2.70
2017-08-01T04:07:07.354Z,3.90
2017-08-01T04:09:37.218Z,3.10
2017-08-01T04:12:07.543Z,2.93
2017-08-01T04:14:37.406Z,3.20
2017-08-01T04:17:07.678Z,3.40
2017-08-01T04:19:37.576Z,2.70
2017-08-01T04:22:07.892Z,3.37
2017-08-01T04:24:37.733Z,3.23
2017-08-01T04:27:08.076Z,2.90
2017-08-01T04:29:37.974Z,2.90
2017-08-01T04:32:08.265Z,2.70
2017-08-01T04:34:38.180Z,3.50
2017-08-01T04:37:08.413Z,3.10
2017-08-01T04:39:38.281Z,2.93
2017-08-01T04:42:08.556Z,2.80
2017-08-01T04:44:50.277Z,2.60
2017-08-01T04:47:20.562Z,2.80
2017-08-01T04:49:50.434Z,2.90
2017-08-01T04:52:20.700Z,3.00
2017-08-01T04:54:50.608Z,3.30
2017-08-01T04:57:20.939Z,3.20
2017-08-01T04:59:50.814Z,2.80
2017-08-01T05:02:21.140Z,2.50
2017-08-01T05:04:51.008Z,3.77
2017-08-01T05:07:21.307Z,3.60
2017-08-01T05:09:51.183Z,2.93
2017-08-01T05:12:21.494Z,3.40
2017-08-01T05:14:51.384Z,3.50
2017-08-01T05:17:21.676Z,3.67
2017-08-01T05:19:51.552Z,3.37
2017-08-01T05:22:21.801Z,4.03
2017-08-01T05:24:51.698Z,3.83
2017-08-01T05:27:21.586Z,4.70
2017-08-01T05:29:51.835Z,4.77
2017-08-01T05:32:21.682Z,3.53
2017-08-01T05:34:51.562Z,4.40
2017-08-01T05:37:21.965Z,4.13
2017-08-01T05:39:51.804Z,3.37
2017-08-01T05:42:22.051Z,4.20
2017-08-01T05:44:51.939Z,4.37
2017-08-01T05:47:22.293Z,4.30
2017-08-01T05:49:52.146Z,4.10
2017-08-01T05:52:22.512Z,4.60
2017-08-01T05:54:52.370Z,5.00
2017-08-01T05:57:22.638Z,4.80
2017-08-01T05:59:52.547Z,4.03
2017-08-01T06:02:22.777Z,3.90
2017-08-01T06:04:52.635Z,4.60
2017-08-01T06:07:22.536Z,3.90
2017-08-01T06:09:52.733Z,4.60
2017-08-01T06:12:22.639Z,4.20
2017-08-01T06:14:52.594Z,3.70
2017-08-01T06:17:22.881Z,3.27
2017-08-01T06:19:52.749Z,3.77
2017-08-01T06:22:22.614Z,4.30
2017-08-01T06:24:52.816Z,3.60
2017-08-01T06:27:22.687Z,3.53
2017-08-01T06:29:52.576Z,3.10
2017-08-01T06:32:22.781Z,3.33
2017-08-01T06:34:52.719Z,2.70
2017-08-01T06:37:22.608Z,3.50
2017-08-01T06:39:52.914Z,2.80
2017-08-01T06:42:22.903Z,3.97
2017-08-01T06:44:53.166Z,4.70
2017-08-01T06:47:23.051Z,2.90
2017-08-01T06:49:53.429Z,2.57
2017-08-01T06:52:23.325Z,2.80
2017-08-01T06:54:53.622Z,2.73
2017-08-01T06:57:23.515Z,2.67
2017-08-01T06:59:53.752Z,2.70
2017-08-01T07:02:23.852Z,2.70
2017-08-01T07:04:54.120Z,2.10
2017-08-01T07:07:23.965Z,2.60
2017-08-01T07:09:54.334Z,3.17
2017-08-01T07:12:24.170Z,2.17
2017-08-01T07:14:54.470Z,1.83
2017-08-01T07:17:24.335Z,2.80
2017-08-01T07:19:54.625Z,2.70
2017-08-01T07:22:24.478Z,2.43
2017-08-01T07:24:54.736Z,1.87
2017-08-01T07:27:24.592Z,2.00
2017-08-01T07:29:55.835Z,2.80
2017-08-01T07:32:25.691Z,2.27
2017-08-01T07:34:55.608Z,1.70
2017-08-01T07:37:25.846Z,1.90
2017-08-01T07:39:55.730Z,2.10
2017-08-01T07:42:25.601Z,2.00
2017-08-01T07:44:55.889Z,2.23
2017-08-01T07:47:25.797Z,1.70
2017-08-01T07:49:56.094Z,1.60
2017-08-01T07:52:25.945Z,1.60
2017-08-01T07:54:56.453Z,2.03
2017-08-01T07:57:26.331Z,1.80
2017-08-01T07:59:56.528Z,1.67
2017-08-01T08:02:26.399Z,1.70
2017-08-01T08:04:56.643Z,1.70
2017-08-01T08:07:26.519Z,2.20
2017-08-01T08:09:56.778Z,1.70
2017-08-01T08:12:26.624Z,1.53
2017-08-01T08:14:56.574Z,2.03
2017-08-01T08:17:26.846Z,2.60
2017-08-01T08:19:56.820Z,2.10
2017-08-01T08:22:27.078Z,2.33
2017-08-01T08:24:56.976Z,1.67
2017-08-01T08:27:27.314Z,2.90
2017-08-01T08:29:57.167Z,1.97
2017-08-01T08:32:27.384Z,1.53
2017-08-01T08:34:57.331Z,1.80
2017-08-01T08:37:27.663Z,1.63
2017-08-01T08:39:57.535Z,1.50
2017-08-01T08:42:27.807Z,1.80
2017-08-01T08:44:57.717Z,2.07
2017-08-01T08:47:27.615Z,2.13
2017-08-01T08:49:58.013Z,1.90
2017-08-01T08:52:27.856Z,2.10
2017-08-01T08:54:58.106Z,2.00
2017-08-01T08:57:27.961Z,1.53
2017-08-01T08:59:58.207Z,1.70
2017-08-01T09:02:28.094Z,2.10
2017-08-01T09:04:58.486Z,2.00
2017-08-01T09:07:28.435Z,1.97
2017-08-01T09:09:58.693Z,2.07
2017-08-01T09:12:28.585Z,2.00
2017-08-01T09:14:58.865Z,2.03
2017-08-01T09:17:28.795Z,1.77
2017-08-01T09:19:58.676Z,2.17
2017-08-01T09:22:28.882Z,2.13
2017-08-01T09:24:58.809Z,2.20
2017-08-01T09:27:28.714Z,2.60
2017-08-01T09:29:59.015Z,2.17
2017-08-01T09:32:28.870Z,1.70
2017-08-01T09:34:59.177Z,1.80
2017-08-01T09:37:29.040Z,2.13
2017-08-01T09:39:59.313Z,2.70
2017-08-01T09:42:29.193Z,1.87
2017-08-01T09:44:59.474Z,2.00
2017-08-01T09:47:29.366Z,2.97
2017-08-01T09:49:59.696Z,2.60
2017-08-01T09:52:29.561Z,2.37
2017-08-01T09:54:59.815Z,2.80
2017-08-01T09:57:29.697Z,2.23
2017-08-01T09:59:59.639Z,2.30
2017-08-01T10:02:29.872Z,2.27
2017-08-01T10:04:59.761Z,2.30
2017-08-01T10:07:29.699Z,2.20
2017-08-01T10:10:00.083Z,2.20
2017-08-01T10:12:30.052Z,2.70
2017-08-01T10:15:00.363Z,2.80
2017-08-01T10:17:30.414Z,2.80
2017-08-01T10:20:01.661Z,2.33
2017-08-01T10:22:31.538Z,2.73
2017-08-01T10:25:01.859Z,3.27
2017-08-01T10:27:31.797Z,2.30
2017-08-01T10:30:02.196Z,2.17
2017-08-01T10:32:32.049Z,2.17
2017-08-01T10:35:02.426Z,2.40
2017-08-01T10:37:32.286Z,2.90
2017-08-01T10:40:02.768Z,2.33
2017-08-01T10:42:32.641Z,1.97
2017-08-01T10:45:02.903Z,2.60
2017-08-01T10:47:32.761Z,2.77
2017-08-01T10:50:03.100Z,1.93
2017-08-01T10:52:32.966Z,2.07
2017-08-01T10:55:03.231Z,1.57
2017-08-01T10:57:33.137Z,2.30
2017-08-01T11:00:03.504Z,1.97
2017-08-01T11:02:33.422Z,2.00
2017-08-01T11:05:03.774Z,2.47
2017-08-01T11:07:33.712Z,2.00
2017-08-01T11:10:04.229Z,1.67
2017-08-01T11:12:34.128Z,1.93
2017-08-01T11:15:04.410Z,2.93
2017-08-01T11:17:34.273Z,2.17
2017-08-01T11:20:04.574Z,1.83
2017-08-01T11:22:34.461Z,2.20
2017-08-01T11:25:04.717Z,2.10
2017-08-01T11:27:34.560Z,2.37
2017-08-01T11:30:04.781Z,2.10
2017-08-01T11:32:34.668Z,2.13
2017-08-01T11:35:04.604Z,2.30
2017-08-01T11:37:34.895Z,2.30
2017-08-01T11:40:04.858Z,2.07
2017-08-01T11:42:35.102Z,2.40
2017-08-01T11:45:07.170Z,2.57
2017-08-01T11:47:38.333Z,2.77
2017-08-01T11:50:08.231Z,2.00
2017-08-01T11:52:38.494Z,2.50
2017-08-01T11:55:08.381Z,2.50
2017-08-01T11:57:38.626Z,2.80
2017-08-01T12:00:08.503Z,2.80
2017-08-01T12:02:38.761Z,2.70
2017-08-01T12:05:08.641Z,3.57
2017-08-01T12:07:38.797Z,2.27
2017-08-01T12:10:09.093Z,2.77
2017-08-01T12:12:39.542Z,2.67
2017-08-01T12:15:09.744Z,2.33
2017-08-01T12:17:39.626Z,2.60
2017-08-01T12:20:09.515Z,2.70
2017-08-01T12:22:39.739Z,2.57
2017-08-01T12:25:09.629Z,2.50
2017-08-01T12:27:39.618Z,2.60
2017-08-01T12:30:11.125Z,2.60
2017-08-01T12:32:41.057Z,3.67
2017-08-01T12:35:10.979Z,2.37
2017-08-01T12:37:41.304Z,3.03
2017-08-01T12:40:11.193Z,3.07
2017-08-01T12:42:41.571Z,2.97
2017-08-01T12:45:11.428Z,3.03
2017-08-01T12:47:41.683Z,2.63
2017-08-01T12:50:11.558Z,3.23
2017-08-01T12:52:41.811Z,4.00
2017-08-01T12:55:11.679Z,2.93
2017-08-01T12:57:41.607Z,2.70
2017-08-01T13:00:11.858Z,2.93
2017-08-01T13:02:41.760Z,3.50
2017-08-01T13:05:11.656Z,3.07
2017-08-01T13:07:41.900Z,3.10
2017-08-01T13:10:11.789Z,3.13
2017-08-01T13:12:41.659Z,3.43
2017-08-01T13:15:11.959Z,3.10
2017-08-01T13:17:41.846Z,3.30
2017-08-01T13:20:12.213Z,3.60
2017-08-01T13:22:42.125Z,3.27
2017-08-01T13:25:12.553Z,4.07
2017-08-01T13:27:42.471Z,4.63
2017-08-01T13:30:12.834Z,4.10
2017-08-01T13:32:42.753Z,4.00
2017-08-01T13:35:13.140Z,3.60
2017-08-01T13:37:43.161Z,4.43
2017-08-01T13:40:13.365Z,3.77
2017-08-01T13:42:43.309Z,4.50
2017-08-01T13:45:13.547Z,4.40
2017-08-01T13:47:43.458Z,5.77
2017-08-01T13:50:13.707Z,4.73
2017-08-01T13:52:43.567Z,4.97
2017-08-01T13:55:14.206Z,5.07
2017-08-01T13:57:44.066Z,4.53
2017-08-01T14:00:14.415Z,5.83
2017-08-01T14:02:44.291Z,5.50
2017-08-01T14:05:14.586Z,6.13
2017-08-01T14:07:44.456Z,6.37
2017-08-01T14:10:14.764Z,4.70
2017-08-01T14:12:44.723Z,5.07
2017-08-01T14:15:15.144Z,4.57
2017-08-01T14:17:45.047Z,5.17
2017-08-01T14:20:15.332Z,3.90
2017-08-01T14:22:45.281Z,4.60
2017-08-01T14:25:15.587Z,4.30
2017-08-01T14:27:45.503Z,3.97
2017-08-01T14:30:15.841Z,3.57
2017-08-01T14:32:45.768Z,3.50
2017-08-01T14:35:15.644Z,3.93
2017-08-01T14:37:46.845Z,2.87
2017-08-01T14:40:16.865Z,2.70
2017-08-01T14:42:48.258Z,3.20
2017-08-01T14:45:18.838Z,3.00
2017-08-01T14:47:49.114Z,3.10
2017-08-01T14:50:19.047Z,2.90
2017-08-01T14:52:49.435Z,3.23
2017-08-01T14:55:19.374Z,3.20
2017-08-01T14:57:49.626Z,2.37
2017-08-01T15:00:19.588Z,2.70
2017-08-01T15:02:49.977Z,3.03
2017-08-01T15:05:19.826Z,3.10
2017-08-01T15:07:50.153Z,2.97
2017-08-01T15:10:20.022Z,3.10
2017-08-01T15:12:50.259Z,3.20
2017-08-01T15:15:20.162Z,2.27
2017-08-01T15:17:50.453Z,3.20
2017-08-01T15:20:20.437Z,2.50
2017-08-01T15:22:50.682Z,2.70
2017-08-01T15:25:20.608Z,2.87
2017-08-01T15:27:51.018Z,2.53
2017-08-01T15:30:21.015Z,3.07
2017-08-01T15:32:51.341Z,2.80
2017-08-01T15:35:21.220Z,3.03
2017-08-01T15:37:51.488Z,3.93
2017-08-01T15:40:21.349Z,2.90
2017-08-01T15:42:51.585Z,3.10
2017-08-01T15:45:21.441Z,3.30
2017-08-01T15:47:51.824Z,2.70
2017-08-01T15:50:21.738Z,3.60
2017-08-01T15:52:51.630Z,3.87
2017-08-01T15:55:21.846Z,3.40
2017-08-01T15:57:51.720Z,2.77
2017-08-01T16:00:21.613Z,2.83
2017-08-01T16:02:51.907Z,4.23
2017-08-01T16:05:21.792Z,3.53
2017-08-01T16:07:52.074Z,2.80
2017-08-01T16:10:21.931Z,3.10
2017-08-01T16:12:52.240Z,3.10
2017-08-01T16:15:22.161Z,3.77
2017-08-01T16:17:52.543Z,3.13
2017-08-01T16:20:22.457Z,3.47
2017-08-01T16:22:52.810Z,3.53
2017-08-01T16:25:22.683Z,3.47
2017-08-01T16:27:52.609Z,2.90
2017-08-01T16:30:22.862Z,3.00
2017-08-01T16:32:52.759Z,3.87
2017-08-01T16:35:22.642Z,3.60
2017-08-01T16:37:52.909Z,3.60
2017-08-01T16:40:22.807Z,3.93
2017-08-01T16:42:53.130Z,3.90
2017-08-01T16:45:23.054Z,4.40
2017-08-01T16:47:53.367Z,4.13
2017-08-01T16:50:23.358Z,4.70
2017-08-01T16:52:53.735Z,4.90
2017-08-01T16:55:23.717Z,7.93
2017-08-01T16:57:53.943Z,4.60
2017-08-01T17:00:23.849Z,4.13
2017-08-01T17:02:54.087Z,5.13
2017-08-01T17:05:23.975Z,4.90
2017-08-01T17:07:54.347Z,5.27
2017-08-01T17:10:24.273Z,5.13
2017-08-01T17:12:54.543Z,4.27
2017-08-01T17:15:24.430Z,3.90
2017-08-01T17:17:54.716Z,4.20
2017-08-01T17:20:24.594Z,4.17
2017-08-01T17:22:54.811Z,4.53
2017-08-01T17:25:24.872Z,4.37
2017-08-01T17:27:55.156Z,5.23
2017-08-01T17:30:25.045Z,4.77
2017-08-01T17:32:55.360Z,4.23
2017-08-01T17:35:25.277Z,4.50
2017-08-01T17:37:55.534Z,4.40
2017-08-01T17:40:25.413Z,4.10
2017-08-01T17:42:55.668Z,4.20
2017-08-01T17:45:25.717Z,3.90
2017-08-01T17:47:56.879Z,3.60
2017-08-01T17:50:26.805Z,3.40
2017-08-01T17:52:57.150Z,4.60
2017-08-01T17:55:27.051Z,4.40
2017-08-01T17:57:57.404Z,4.13
2017-08-01T18:00:27.387Z,8.07
2017-08-01T18:02:57.761Z,3.77
2017-08-01T18:05:27.657Z,3.93
2017-08-01T18:07:57.967Z,3.30
2017-08-01T18:10:27.866Z,4.17
2017-08-01T18:12:58.401Z,3.30
2017-08-01T18:15:28.323Z,3.77
2017-08-01T18:17:58.665Z,4.03
2017-08-01T18:20:28.541Z,3.40
2017-08-01T18:22:58.801Z,3.40
2017-08-01T18:25:28.747Z,3.47
2017-08-01T18:27:59.153Z,3.97
2017-08-01T18:30:29.225Z,5.77
2017-08-01T18:32:59.766Z,3.93
2017-08-01T18:35:30.180Z,4.03
2017-08-01T18:38:00.489Z,4.07
2017-08-01T18:40:30.521Z,3.67
2017-08-01T18:43:01.078Z,3.70
2017-08-01T18:45:31.118Z,3.83
2017-08-01T18:48:01.494Z,4.23
2017-08-01T18:50:31.497Z,3.77
2017-08-01T18:53:01.844Z,4.97
2017-08-01T18:55:31.893Z,4.13
2017-08-01T18:58:02.275Z,4.20
2017-08-01T19:00:32.341Z,5.67
2017-08-01T19:03:02.745Z,4.40
2017-08-01T19:05:32.776Z,4.07
2017-08-01T19:08:03.221Z,5.00
2017-08-01T19:10:33.203Z,5.10
2017-08-01T19:13:03.592Z,4.30
2017-08-01T19:15:33.645Z,5.13
2017-08-01T19:18:04.882Z,5.17
2017-08-01T19:20:34.867Z,5.70
2017-08-01T19:23:06.547Z,6.20
2017-08-01T19:25:36.594Z,5.33
2017-08-01T19:28:06.888Z,5.50
2017-08-01T19:30:36.863Z,4.53
2017-08-01T19:33:07.327Z,5.60
2017-08-01T19:35:37.347Z,6.00
2017-08-01T19:38:07.775Z,5.90
2017-08-01T19:40:37.748Z,5.30
2017-08-01T19:43:08.100Z,6.27
2017-08-01T19:45:38.189Z,6.53
2017-08-01T19:48:08.395Z,6.77
2017-08-01T19:50:38.411Z,7.10
2017-08-01T19:53:08.611Z,7.60
2017-08-01T19:55:38.629Z,7.87
2017-08-01T19:58:08.845Z,7.37
2017-08-01T20:00:38.752Z,7.43
2017-08-01T20:03:09.052Z,8.00
2017-08-01T20:05:38.970Z,9.97
2017-08-01T20:08:09.204Z,8.90
2017-08-01T20:10:39.159Z,9.30
2017-08-01T20:13:09.641Z,10.40
2017-08-01T20:15:39.596Z,10.77
2017-08-01T20:18:09.887Z,10.00
2017-08-01T20:20:40.081Z,10.20
2017-08-01T20:23:10.528Z,9.67
2017-08-01T20:25:40.971Z,9.33
2017-08-01T20:28:11.585Z,9.73
2017-08-01T20:30:41.554Z,11.80
2017-08-01T20:33:11.967Z,13.03
2017-08-01T20:35:41.897Z,16.70
2017-08-01T20:38:12.452Z,18.40
2017-08-01T20:40:42.854Z,20.43
2017-08-01T20:43:13.475Z,20.70
2017-08-01T20:45:43.392Z,22.10
2017-08-01T20:48:14.027Z,24.90
2017-08-01T20:50:43.984Z,24.43
2017-08-01T20:53:14.251Z,25.00
2017-08-01T20:55:44.137Z,26.07
2017-08-01T20:58:14.443Z,24.27
2017-08-01T21:00:44.315Z,25.23
2017-08-01T21:03:14.808Z,22.90
2017-08-01T21:05:44.687Z,19.67
2017-08-01T21:08:14.991Z,20.43
2017-08-01T21:10:44.859Z,18.53
2017-08-01T21:13:15.152Z,15.80
2017-08-01T21:15:45.000Z,18.73
2017-08-01T21:18:15.269Z,16.30
2017-08-01T21:20:45.137Z,17.90
2017-08-01T21:23:15.513Z,15.70
2017-08-01T21:25:45.414Z,15.10
2017-08-01T21:28:15.811Z,14.40
2017-08-01T21:30:45.686Z,14.60
2017-08-01T21:33:16.049Z,14.50
2017-08-01T21:35:46.056Z,14.37
2017-08-01T21:38:16.301Z,15.30
2017-08-01T21:40:46.221Z,15.47
2017-08-01T21:43:17.005Z,14.60
2017-08-01T21:45:48.375Z,14.90
2017-08-01T21:48:18.678Z,15.50
2017-08-01T21:50:48.575Z,16.37
2017-08-01T21:53:18.880Z,18.20
2017-08-01T21:55:48.765Z,18.33
2017-08-01T21:58:18.671Z,16.27
2017-08-01T22:00:48.967Z,18.03
2017-08-01T22:03:18.860Z,18.23
2017-08-01T22:05:49.214Z,19.77
2017-08-01T22:08:19.163Z,20.03
2017-08-01T22:10:49.419Z,20.83
2017-08-01T22:13:19.333Z,22.50
2017-08-01T22:15:49.580Z,22.00
2017-08-01T22:18:19.495Z,22.23
2017-08-01T22:20:49.736Z,23.13
2017-08-01T22:23:19.636Z,23.67
2017-08-01T22:25:49.531Z,23.23
2017-08-01T22:28:19.887Z,23.93
2017-08-01T22:30:49.737Z,23.23
2017-08-01T22:33:19.606Z,26.27
2017-08-01T22:35:50.041Z,23.43
2017-08-01T22:38:19.896Z,25.50
2017-08-01T22:40:50.112Z,23.53
2017-08-01T22:43:20.016Z,24.00
2017-08-01T22:45:50.355Z,24.00
2017-08-01T22:48:20.231Z,23.77
2017-08-01T22:50:50.436Z,23.70
2017-08-01T22:53:20.292Z,25.20
2017-08-01T22:55:50.570Z,23.40
2017-08-01T22:58:20.470Z,23.93
2017-08-01T23:00:50.776Z,24.20
2017-08-01T23:03:20.749Z,23.43
2017-08-01T23:05:50.987Z,23.93
2017-08-01T23:08:20.846Z,24.07
2017-08-01T23:10:51.124Z,23.63
2017-08-01T23:13:20.985Z,23.90
2017-08-01T23:15:51.259Z,24.63
2017-08-01T23:18:21.109Z,25.73
2017-08-01T23:20:51.386Z,25.67
2017-08-01T23:23:21.253Z,25.40
2017-08-01T23:25:51.532Z,24.60
2017-08-01T23:28:21.451Z,21.70
2017-08-01T23:30:51.781Z,24.60
2017-08-01T23:33:21.632Z,22.57
2017-08-01T23:35:51.900Z,23.73
2017-08-01T23:38:21.757Z,23.07
2017-08-01T23:40:51.647Z,22.93
2017-08-01T23:43:21.942Z,22.83
2017-08-01T23:45:51.814Z,23.70
2017-08-01T23:48:22.068Z,23.83
2017-08-01T23:50:51.927Z,22.77
2017-08-01T23:53:22.224Z,22.10
2017-08-01T23:55:52.063Z,21.17
2017-08-01T23:58:22.341Z,21.30
